sensor_id;sensor_type;location;lat;lon;timestamp;P1;durP1;ratioP1;P2;durP2;ratioP2
12373;SDS011;6251;51.762;8.660;2022-12-31T05:06:44;0.10;;;0.10;;
12373;SDS011;6251;51.762;8.660;2022-12-31T05:16:45;0.40;;;0.10;;
12373;SDS011;6251;51.762;8.660;2022-12-31T05:26:45;0.47;;;0.25;;
12373;SDS011;6251;51.762;8.660;2022-12-31T05:36:46;0.65;;;0.20;;
12373;SDS011;6251;51.762;8.660;2022-12-31T05:46:47;0.15;;;0.15;;
12373;SDS011;6251;51.762;8.660;2022-12-31T05:56:47;1.00;;;0.35;;
12373;SDS011;6251;51.762;8.660;2022-12-31T06:06:48;0.20;;;0.20;;
12373;SDS011;6251;51.762;8.660;2022-12-31T06:16:48;0.40;;;0.20;;
12373;SDS011;6251;51.762;8.660;2022-12-31T06:26:49;0.47;;;0.30;;
12373;SDS011;6251;51.762;8.660;2022-12-31T06:36:50;1.00;;;0.30;;
12373;SDS011;6251;51.762;8.660;2022-12-31T06:46:50;0.40;;;0.25;;
12373;SDS011;6251;51.762;8.660;2022-12-31T06:56:51;0.52;;;0.40;;
12373;SDS011;6251;51.762;8.660;2022-12-31T07:17:07;1.27;;;0.40;;
12373;SDS011;6251;51.762;8.660;2022-12-31T07:37:43;0.85;;;0.40;;
12373;SDS011;6251;51.762;8.660;2022-12-31T07:47:51;0.43;;;0.43;;
12373;SDS011;6251;51.762;8.660;2022-12-31T07:58:06;0.40;;;0.40;;
12373;SDS011;6251;51.762;8.660;2022-12-31T08:18:42;1.17;;;0.77;;
12373;SDS011;6251;51.762;8.660;2022-12-31T08:49:02;0.60;;;0.60;;
12373;SDS011;6251;51.762;8.660;2022-12-31T09:20:24;0.57;;;0.57;;
12373;SDS011;6251;51.762;8.660;2022-12-31T09:30:25;1.35;;;0.75;;
12373;SDS011;6251;51.762;8.660;2022-12-31T09:40:42;1.33;;;0.60;;
12373;SDS011;6251;51.762;8.660;2022-12-31T11:35:15;0.82;;;0.65;;
12373;SDS011;6251;51.762;8.660;2022-12-31T12:05:50;1.45;;;1.25;;
12373;SDS011;6251;51.762;8.660;2022-12-31T12:16:02;1.05;;;0.98;;
12373;SDS011;6251;51.762;8.660;2022-12-31T12:26:06;1.08;;;0.70;;
12373;SDS011;6251;51.762;8.660;2022-12-31T12:36:24;0.85;;;0.70;;
12373;SDS011;6251;51.762;8.660;2022-12-31T12:46:26;1.40;;;0.77;;
12373;SDS011;6251;51.762;8.660;2022-12-31T12:56:36;0.80;;;0.80;;
12373;SDS011;6251;51.762;8.660;2022-12-31T13:28:08;1.05;;;0.75;;
12373;SDS011;6251;51.762;8.660;2022-12-31T13:38:17;3.47;;;1.00;;
12373;SDS011;6251;51.762;8.660;2022-12-31T13:48:31;1.67;;;0.90;;
12373;SDS011;6251;51.762;8.660;2022-12-31T13:58:38;2.28;;;1.20;;
12373;SDS011;6251;51.762;8.660;2022-12-31T14:08:42;3.62;;;1.17;;
12373;SDS011;6251;51.762;8.660;2022-12-31T14:18:46;1.85;;;1.00;;
12373;SDS011;6251;51.762;8.660;2022-12-31T14:39:21;0.98;;;0.98;;
12373;SDS011;6251;51.762;8.660;2022-12-31T14:49:55;1.00;;;1.00;;
12373;SDS011;6251;51.762;8.660;2022-12-31T14:59:59;1.00;;;1.00;;
12373;SDS011;6251;51.762;8.660;2022-12-31T15:10:20;0.95;;;0.90;;
12373;SDS011;6251;51.762;8.660;2022-12-31T15:31:23;1.30;;;1.10;;
12373;SDS011;6251;51.762;8.660;2022-12-31T15:41:25;1.00;;;1.00;;
12373;SDS011;6251;51.762;8.660;2022-12-31T15:51:49;1.30;;;1.20;;
12373;SDS011;6251;51.762;8.660;2022-12-31T16:01:55;1.20;;;1.10;;
12373;SDS011;6251;51.762;8.660;2022-12-31T16:11:56;3.95;;;2.40;;
12373;SDS011;6251;51.762;8.660;2022-12-31T16:22:00;1.98;;;1.25;;
12373;SDS011;6251;51.762;8.660;2022-12-31T16:32:08;4.07;;;1.55;;
12373;SDS011;6251;51.762;8.660;2022-12-31T16:52:25;2.12;;;0.98;;
12373;SDS011;6251;51.762;8.660;2022-12-31T17:02:37;1.42;;;1.33;;
12373;SDS011;6251;51.762;8.660;2022-12-31T17:12:40;2.42;;;1.25;;
12373;SDS011;6251;51.762;8.660;2022-12-31T17:22:46;1.65;;;1.40;;
12373;SDS011;6251;51.762;8.660;2022-12-31T17:32:47;1.77;;;1.67;;
12373;SDS011;6251;51.762;8.660;2022-12-31T17:42:52;1.52;;;1.42;;
12373;SDS011;6251;51.762;8.660;2022-12-31T17:52:55;2.35;;;1.40;;
12373;SDS011;6251;51.762;8.660;2022-12-31T18:02:59;1.20;;;1.20;;
12373;SDS011;6251;51.762;8.660;2022-12-31T18:13:01;3.35;;;1.58;;
12373;SDS011;6251;51.762;8.660;2022-12-31T18:23:03;3.08;;;1.33;;
12373;SDS011;6251;51.762;8.660;2022-12-31T18:33:04;2.60;;;1.90;;
12373;SDS011;6251;51.762;8.660;2022-12-31T18:43:07;2.25;;;1.60;;
12373;SDS011;6251;51.762;8.660;2022-12-31T18:53:14;2.15;;;1.58;;
12373;SDS011;6251;51.762;8.660;2022-12-31T19:13:39;2.00;;;1.40;;
12373;SDS011;6251;51.762;8.660;2022-12-31T19:23:40;2.78;;;1.70;;
12373;SDS011;6251;51.762;8.660;2022-12-31T19:33:41;2.62;;;2.00;;
12373;SDS011;6251;51.762;8.660;2022-12-31T19:43:42;1.67;;;1.58;;
12373;SDS011;6251;51.762;8.660;2022-12-31T19:53:44;1.98;;;1.77;;
12373;SDS011;6251;51.762;8.660;2022-12-31T20:03:46;3.30;;;2.85;;
12373;SDS011;6251;51.762;8.660;2022-12-31T20:13:47;3.50;;;1.60;;
12373;SDS011;6251;51.762;8.660;2022-12-31T20:23:49;2.85;;;1.80;;
12373;SDS011;6251;51.762;8.660;2022-12-31T20:33:52;2.22;;;1.67;;
12373;SDS011;6251;51.762;8.660;2022-12-31T20:43:53;3.70;;;1.48;;
12373;SDS011;6251;51.762;8.660;2022-12-31T20:53:55;3.95;;;1.90;;
12373;SDS011;6251;51.762;8.660;2022-12-31T21:03:58;4.22;;;1.37;;
12373;SDS011;6251;51.762;8.660;2022-12-31T21:14:00;6.07;;;2.05;;
12373;SDS011;6251;51.762;8.660;2022-12-31T21:24:00;6.30;;;1.60;;
12373;SDS011;6251;51.762;8.660;2022-12-31T21:34:01;1.60;;;1.50;;
12373;SDS011;6251;51.762;8.660;2022-12-31T21:44:02;4.43;;;2.00;;
12373;SDS011;6251;51.762;8.660;2022-12-31T21:54:02;2.87;;;1.70;;
12373;SDS011;6251;51.762;8.660;2022-12-31T22:04:03;2.70;;;1.90;;
12373;SDS011;6251;51.762;8.660;2022-12-31T22:14:04;3.45;;;1.98;;
12373;SDS011;6251;51.762;8.660;2022-12-31T23:25:07;9.27;;;6.82;;
12373;SDS011;6251;51.762;8.660;2022-12-31T23:35:08;6.90;;;4.60;;
12373;SDS011;6251;51.762;8.660;2022-12-31T23:45:09;7.20;;;3.80;;
12373;SDS011;6251;51.762;8.660;2022-12-31T23:55:09;7.97;;;4.00;;
